createdAt,value
2022-12-20T00:00:13.670Z,403.9
2022-12-20T00:01:13.680Z,404.34
2022-12-20T00:02:13.869Z,404.34
2022-12-20T00:03:13.766Z,405.3
2022-12-20T00:04:13.689Z,405.89
2022-12-20T00:05:13.707Z,406.62
2022-12-20T00:06:13.677Z,406.77
2022-12-20T00:07:13.688Z,406.52
2022-12-20T00:08:13.686Z,406.73
2022-12-20T00:09:13.706Z,406.56
2022-12-20T00:10:13.693Z,406.78
2022-12-20T00:11:13.694Z,407.61
2022-12-20T00:12:13.695Z,408.18
2022-12-20T00:13:13.698Z,409.28
2022-12-20T00:14:13.765Z,409.71
2022-12-20T00:15:13.699Z,409.78
2022-12-20T00:16:13.692Z,410.29
2022-12-20T00:17:13.745Z,410.31
2022-12-20T00:18:13.760Z,410.94
2022-12-20T00:19:13.722Z,411.11
2022-12-20T00:20:13.701Z,412.48
2022-12-20T00:21:13.705Z,412.99
2022-12-20T00:22:13.708Z,413.98
2022-12-20T00:23:13.713Z,414.9
2022-12-20T00:24:13.730Z,416.11
2022-12-20T00:25:13.710Z,417.82
2022-12-20T00:26:13.716Z,416.57
2022-12-20T00:27:13.718Z,417.36
2022-12-20T00:28:13.718Z,417.96
2022-12-20T00:29:13.742Z,418.53
2022-12-20T00:30:13.757Z,419.21
2022-12-20T00:31:13.821Z,420.1
2022-12-20T00:32:13.722Z,421.13
2022-12-20T00:33:13.719Z,422.42
2022-12-20T00:34:13.746Z,422.97
2022-12-20T00:35:13.733Z,424.04
2022-12-20T00:36:13.729Z,424.38
2022-12-20T00:37:13.737Z,425.23
2022-12-20T00:38:13.739Z,425.14
2022-12-20T00:39:13.785Z,426.21
2022-12-20T00:40:13.744Z,428.05
2022-12-20T00:41:13.737Z,429.19
2022-12-20T00:42:13.733Z,429.42
2022-12-20T00:43:13.734Z,430.75
2022-12-20T00:44:13.773Z,431.6
2022-12-20T00:45:13.738Z,431.92
2022-12-20T00:46:13.767Z,432.7
2022-12-20T00:47:13.830Z,433.95
2022-12-20T00:48:13.752Z,433.76
2022-12-20T00:49:13.768Z,434.55
2022-12-20T00:50:13.784Z,435.19
2022-12-20T00:51:13.750Z,436.15
2022-12-20T00:52:13.748Z,436.25
2022-12-20T00:53:13.761Z,436.81
2022-12-20T00:54:13.785Z,437.84
2022-12-20T00:55:13.766Z,438.61
2022-12-20T00:56:13.766Z,438.81
2022-12-20T00:57:13.764Z,439.41
2022-12-20T00:58:16.776Z,440.51
2022-12-20T00:59:13.861Z,441.05
2022-12-20T01:00:13.778Z,441.18
2022-12-20T01:01:13.811Z,441.85
2022-12-20T01:02:13.874Z,442.18
2022-12-20T01:03:13.888Z,442.33
2022-12-20T01:04:13.827Z,442.53
2022-12-20T01:05:13.776Z,443.23
2022-12-20T01:06:13.770Z,443.42
2022-12-20T01:07:13.779Z,443.79
2022-12-20T01:08:13.775Z,444.05
2022-12-20T01:09:14.954Z,444.77
2022-12-20T01:10:13.777Z,445.08
2022-12-20T01:11:13.790Z,445.4
2022-12-20T01:12:13.830Z,445.36
2022-12-20T01:13:13.788Z,447.45
2022-12-20T01:14:13.784Z,447.41
2022-12-20T01:15:13.795Z,448.91
2022-12-20T01:16:13.871Z,449.2
2022-12-20T01:17:13.786Z,449.13
2022-12-20T01:18:13.817Z,450.82
2022-12-20T01:19:13.803Z,451.55
2022-12-20T01:20:16.932Z,451.9
2022-12-20T01:21:13.795Z,451.72
2022-12-20T01:22:13.831Z,451.2
2022-12-20T01:23:13.806Z,451.62
2022-12-20T01:24:13.813Z,452.47
2022-12-20T01:25:14.829Z,451.89
2022-12-20T01:26:13.808Z,452.04
2022-12-20T01:27:13.812Z,452.5
2022-12-20T01:28:13.813Z,452.68
2022-12-20T01:29:13.808Z,452.44
2022-12-20T01:30:13.827Z,452.03
2022-12-20T01:31:16.979Z,452.73
2022-12-20T01:32:13.888Z,453.37
2022-12-20T01:33:13.818Z,452.78
2022-12-20T01:34:13.853Z,452.99
2022-12-20T01:35:13.819Z,452.41
2022-12-20T01:36:13.825Z,451.92
2022-12-20T01:37:13.824Z,452.56
2022-12-20T01:38:13.837Z,453.05
2022-12-20T01:39:13.825Z,452.68
2022-12-20T01:40:13.826Z,453.3
2022-12-20T01:41:13.826Z,453.16
2022-12-20T01:42:16.851Z,453.77
2022-12-20T01:43:13.837Z,454.28
2022-12-20T01:44:13.828Z,453.98
2022-12-20T01:45:13.847Z,453.46
2022-12-20T01:46:13.878Z,453.74
2022-12-20T01:47:13.834Z,454.04
2022-12-20T01:48:13.856Z,454.89
2022-12-20T01:49:13.847Z,454.52
2022-12-20T01:50:13.874Z,455.44
2022-12-20T01:51:13.861Z,454.91
2022-12-20T01:52:13.854Z,455.56
2022-12-20T01:53:13.874Z,455.69
2022-12-20T01:54:13.859Z,456.09
2022-12-20T01:55:13.869Z,455.91
2022-12-20T01:56:13.859Z,455.92
2022-12-20T01:57:13.855Z,455.57
2022-12-20T01:58:13.859Z,454.43
2022-12-20T01:59:13.867Z,453.93
2022-12-20T02:00:13.855Z,453.08
2022-12-20T02:01:13.921Z,451.42
2022-12-20T02:02:14.167Z,451.9
2022-12-20T02:03:13.995Z,450.7
2022-12-20T02:04:13.858Z,449.89
2022-12-20T02:05:13.862Z,448.9
2022-12-20T02:06:13.892Z,448.29
2022-12-20T02:07:13.902Z,447.57
2022-12-20T02:08:13.867Z,446.31
2022-12-20T02:09:13.872Z,445.84
2022-12-20T02:10:13.887Z,444.12
2022-12-20T02:11:13.869Z,443.39
2022-12-20T02:12:13.893Z,442.34
2022-12-20T02:13:13.889Z,441.42
2022-12-20T02:14:13.892Z,440.76
2022-12-20T02:15:13.884Z,440.21
2022-12-20T02:16:13.925Z,440.17
2022-12-20T02:17:13.880Z,440.12
2022-12-20T02:18:13.883Z,439.78
2022-12-20T02:19:13.897Z,440.63
2022-12-20T02:20:13.886Z,439.71
2022-12-20T02:21:13.888Z,440.55
2022-12-20T02:22:13.920Z,440.34
2022-12-20T02:23:13.890Z,441.15
2022-12-20T02:24:13.890Z,440.64
2022-12-20T02:25:13.906Z,441.02
2022-12-20T02:26:13.905Z,441.44
2022-12-20T02:27:13.899Z,440.71
2022-12-20T02:28:13.909Z,440.84
2022-12-20T02:29:13.908Z,439.99
2022-12-20T02:30:13.909Z,440.58
2022-12-20T02:31:13.909Z,440.79
2022-12-20T02:32:13.991Z,440.8
2022-12-20T02:33:13.921Z,440.59
2022-12-20T02:34:13.919Z,440.51
2022-12-20T02:35:13.934Z,441.58
2022-12-20T02:36:18.054Z,441.65
2022-12-20T02:37:13.915Z,441.45
2022-12-20T02:38:13.968Z,442.53
2022-12-20T02:39:13.920Z,443.38
2022-12-20T02:40:13.917Z,443.82
2022-12-20T02:41:13.917Z,443.55
2022-12-20T02:42:13.930Z,444.6
2022-12-20T02:43:13.921Z,445.33
2022-12-20T02:44:13.927Z,446.09
2022-12-20T02:45:13.932Z,446.25
2022-12-20T02:46:14.011Z,447.91
2022-12-20T02:47:13.927Z,447.85
2022-12-20T02:48:13.932Z,448.65
2022-12-20T02:49:13.982Z,449.72
2022-12-20T02:50:13.938Z,450.12
2022-12-20T02:51:13.983Z,450.46
2022-12-20T02:52:13.939Z,450.48
2022-12-20T02:53:13.945Z,451.14
2022-12-20T02:54:14.008Z,452.04
2022-12-20T02:55:13.939Z,452.55
2022-12-20T02:56:13.957Z,452.52
2022-12-20T02:57:13.955Z,452.72
2022-12-20T02:58:13.945Z,453.52
2022-12-20T02:59:13.951Z,453.89
2022-12-20T03:00:13.974Z,454.34
2022-12-20T03:01:13.999Z,455.29
2022-12-20T03:02:14.116Z,455.11
2022-12-20T03:03:14.113Z,454.98
2022-12-20T03:04:13.958Z,455.43
2022-12-20T03:05:13.955Z,455.29
2022-12-20T03:06:13.961Z,456.19
2022-12-20T03:07:13.971Z,455.59
2022-12-20T03:08:13.995Z,456.35
2022-12-20T03:09:13.970Z,456.36
2022-12-20T03:10:14.001Z,455.2
2022-12-20T03:11:13.979Z,457.14
2022-12-20T03:12:13.965Z,457.33
2022-12-20T03:13:13.996Z,457.33
2022-12-20T03:14:13.977Z,457.81
2022-12-20T03:15:13.983Z,457.87
2022-12-20T03:16:13.991Z,458.05
2022-12-20T03:17:14.127Z,458.36
2022-12-20T03:18:13.985Z,458.55
2022-12-20T03:19:14.012Z,458.58
2022-12-20T03:20:14.033Z,458.87
2022-12-20T03:21:13.981Z,458.36
2022-12-20T03:22:13.997Z,458.53
2022-12-20T03:23:13.987Z,458.24
2022-12-20T03:24:13.995Z,457.99
2022-12-20T03:25:13.996Z,458.45
2022-12-20T03:26:14.022Z,458.31
2022-12-20T03:27:13.993Z,458.93
2022-12-20T03:28:13.999Z,459.31
2022-12-20T03:29:14.019Z,459.34
2022-12-20T03:30:14.003Z,460.28
2022-12-20T03:31:14.044Z,460.03
2022-12-20T03:32:14.011Z,461.59
2022-12-20T03:33:14.006Z,461.72
2022-12-20T03:34:14.004Z,461.63
2022-12-20T03:35:14.018Z,462.42
2022-12-20T03:36:16.858Z,462.37
2022-12-20T03:37:14.016Z,462.53
2022-12-20T03:38:14.016Z,463.13
2022-12-20T03:39:14.013Z,462.88
2022-12-20T03:40:14.032Z,464
2022-12-20T03:41:14.038Z,463.54
2022-12-20T03:42:14.055Z,463.77
2022-12-20T03:43:14.016Z,464.39
2022-12-20T03:44:14.037Z,464.63
2022-12-20T03:45:14.040Z,464.62
2022-12-20T03:46:14.057Z,464.82
2022-12-20T03:47:17.044Z,464.83
2022-12-20T03:48:14.035Z,463.8
2022-12-20T03:49:14.047Z,464.65
2022-12-20T03:50:14.031Z,464.26
2022-12-20T03:51:14.059Z,464.45
2022-12-20T03:52:14.038Z,464.47
2022-12-20T03:53:14.032Z,463.75
2022-12-20T03:54:14.055Z,464.08
2022-12-20T03:55:14.050Z,464.25
2022-12-20T03:56:14.054Z,464.4
2022-12-20T03:57:14.048Z,464.75
2022-12-20T03:58:17.129Z,464.66
2022-12-20T03:59:14.040Z,464.9
2022-12-20T04:00:14.050Z,464.63
2022-12-20T04:01:14.094Z,464.57
2022-12-20T04:02:14.252Z,464.75
2022-12-20T04:03:14.186Z,465.17
2022-12-20T04:04:14.057Z,464.84
2022-12-20T04:05:14.060Z,464.21
2022-12-20T04:06:14.069Z,463.39
2022-12-20T04:07:14.066Z,463.62
2022-12-20T04:08:14.117Z,463.17
2022-12-20T04:09:17.189Z,463.14
2022-12-20T04:10:14.093Z,463.19
2022-12-20T04:11:14.061Z,463.21
2022-12-20T04:12:14.061Z,463.59
2022-12-20T04:13:14.085Z,463.57
2022-12-20T04:14:14.113Z,463.82
2022-12-20T04:15:14.068Z,463.12
2022-12-20T04:16:14.163Z,463.76
2022-12-20T04:17:14.086Z,463.3
2022-12-20T04:18:14.080Z,463.07
2022-12-20T04:19:14.084Z,462.27
2022-12-20T04:20:17.062Z,461.94
2022-12-20T04:21:14.099Z,461.06
2022-12-20T04:22:14.086Z,460.96
2022-12-20T04:23:14.099Z,460.54
2022-12-20T04:24:14.079Z,459.68
2022-12-20T04:25:14.087Z,458.68
2022-12-20T04:26:14.094Z,458.5
2022-12-20T04:27:14.091Z,457.92
2022-12-20T04:28:14.084Z,457.24
2022-12-20T04:29:14.125Z,457.04
2022-12-20T04:30:14.125Z,456.18
2022-12-20T04:31:17.260Z,455.39
2022-12-20T04:32:14.120Z,454.36
2022-12-20T04:33:14.109Z,454
2022-12-20T04:34:14.096Z,454.28
2022-12-20T04:35:14.165Z,453.63
2022-12-20T04:36:14.180Z,452.82
2022-12-20T04:37:14.120Z,452.24
2022-12-20T04:38:14.137Z,452.1
2022-12-20T04:39:14.118Z,451.85
2022-12-20T04:40:14.148Z,452.14
2022-12-20T04:41:14.119Z,451.67
2022-12-20T04:42:14.124Z,451.25
2022-12-20T04:43:14.112Z,451.5
2022-12-20T04:44:14.125Z,451.46
2022-12-20T04:45:14.130Z,451.16
2022-12-20T04:46:14.209Z,451.21
2022-12-20T04:47:14.119Z,452.04
2022-12-20T04:48:37.444Z,452.59
2022-12-20T04:49:14.130Z,452.6
2022-12-20T04:50:14.129Z,454.18
2022-12-20T04:51:14.127Z,454.97
2022-12-20T04:52:21.360Z,454.76
2022-12-20T04:53:14.139Z,455.16
2022-12-20T04:54:14.162Z,456.32
2022-12-20T04:55:14.139Z,456.29
2022-12-20T04:56:14.133Z,456.43
2022-12-20T04:57:14.134Z,458.04
2022-12-20T04:58:14.170Z,457.16
2022-12-20T04:59:14.135Z,457.57
2022-12-20T05:00:14.143Z,457.84
2022-12-20T05:01:14.183Z,458.05
2022-12-20T05:02:14.268Z,458.41
2022-12-20T05:03:14.367Z,458.19
2022-12-20T05:04:14.223Z,458.61
2022-12-20T05:05:14.177Z,459.71
2022-12-20T05:06:14.152Z,459.13
2022-12-20T05:07:14.149Z,460.13
2022-12-20T05:08:14.165Z,460.77
2022-12-20T05:09:14.159Z,461.14
2022-12-20T05:10:14.160Z,461.66
2022-12-20T05:11:14.169Z,461.6
2022-12-20T05:12:14.173Z,461.85
2022-12-20T05:13:14.160Z,462.24
2022-12-20T05:14:14.415Z,462.4
2022-12-20T05:15:14.183Z,462.61
2022-12-20T05:16:14.305Z,462.84
2022-12-20T05:17:14.165Z,462.45
2022-12-20T05:18:14.190Z,461.76
2022-12-20T05:19:14.178Z,461.35
2022-12-20T05:20:14.199Z,461.5
2022-12-20T05:21:14.178Z,461.5
2022-12-20T05:22:14.209Z,461.55
2022-12-20T05:23:14.178Z,462.02
2022-12-20T05:24:14.206Z,461.58
2022-12-20T05:25:14.207Z,461.74
2022-12-20T05:26:14.179Z,461.41
2022-12-20T05:27:14.183Z,460.98
2022-12-20T05:28:14.183Z,460.81
2022-12-20T05:29:14.194Z,461.08
2022-12-20T05:30:14.210Z,460.91
2022-12-20T05:31:14.222Z,460.11
2022-12-20T05:32:14.196Z,459.83
2022-12-20T05:33:14.190Z,459.7
2022-12-20T05:34:14.225Z,459.9
2022-12-20T05:35:14.251Z,460.52
2022-12-20T05:36:14.226Z,460.53
2022-12-20T05:37:14.230Z,461.26
2022-12-20T05:38:14.206Z,461.05
2022-12-20T05:39:14.201Z,461.44
2022-12-20T05:40:14.228Z,462.12
2022-12-20T05:41:14.212Z,462.2
2022-12-20T05:42:14.221Z,462.54
2022-12-20T05:43:14.211Z,463.8
2022-12-20T05:44:14.207Z,463.79
2022-12-20T05:45:14.244Z,464.65
2022-12-20T05:46:14.309Z,465.24
2022-12-20T05:47:14.277Z,465.26
2022-12-20T05:48:14.213Z,465.69
2022-12-20T05:49:14.222Z,466.54
2022-12-20T05:50:18.429Z,466.32
2022-12-20T05:51:14.226Z,466.78
2022-12-20T05:52:14.226Z,467.86
2022-12-20T05:53:14.225Z,468.08
2022-12-20T05:54:14.230Z,468.11
2022-12-20T05:55:14.253Z,467.46
2022-12-20T05:56:14.235Z,467.81
2022-12-20T05:57:14.225Z,468.09
2022-12-20T05:58:14.238Z,468.61
2022-12-20T05:59:14.237Z,469.02
2022-12-20T06:00:14.256Z,468.99
2022-12-20T06:01:14.244Z,470.02
2022-12-20T06:02:14.343Z,470.06
2022-12-20T06:03:17.367Z,470.09
2022-12-20T06:04:14.292Z,470.43
2022-12-20T06:05:14.277Z,471.2
2022-12-20T06:06:15.308Z,471.38
2022-12-20T06:07:14.259Z,471.34
2022-12-20T06:08:14.247Z,471.93
2022-12-20T06:09:14.252Z,472.4
2022-12-20T06:10:14.277Z,472.75
2022-12-20T06:11:14.258Z,473.08
2022-12-20T06:12:14.256Z,473.5
2022-12-20T06:13:14.258Z,473.94
2022-12-20T06:14:17.084Z,474.16
2022-12-20T06:15:14.284Z,475.47
2022-12-20T06:16:14.319Z,475.29
2022-12-20T06:17:14.265Z,476.71
2022-12-20T06:18:14.261Z,477.35
2022-12-20T06:19:19.378Z,476.97
2022-12-20T06:20:14.288Z,477.48
2022-12-20T06:21:14.268Z,478.9
2022-12-20T06:22:14.338Z,479.38
2022-12-20T06:23:14.285Z,479.61
2022-12-20T06:24:14.284Z,480.49
2022-12-20T06:25:16.164Z,480.43
2022-12-20T06:26:14.306Z,481.03
2022-12-20T06:27:14.296Z,480.95
2022-12-20T06:28:14.284Z,480.9
2022-12-20T06:29:14.283Z,482.18
2022-12-20T06:30:14.280Z,482.54
2022-12-20T06:31:14.431Z,482.54
2022-12-20T06:32:14.283Z,483.16
2022-12-20T06:33:14.288Z,482.94
2022-12-20T06:34:14.293Z,482.45
2022-12-20T06:35:14.302Z,482.31
2022-12-20T06:36:17.078Z,483.58
2022-12-20T06:37:14.298Z,483.57
2022-12-20T06:38:14.325Z,482.97
2022-12-20T06:39:14.301Z,483.82
2022-12-20T06:40:14.304Z,484.08
2022-12-20T06:41:14.301Z,484.01
2022-12-20T06:42:14.297Z,483.83
2022-12-20T06:43:14.303Z,485.09
2022-12-20T06:44:14.319Z,484.82
2022-12-20T06:45:14.315Z,484.8
2022-12-20T06:46:14.394Z,485.26
2022-12-20T06:47:17.351Z,484.81
2022-12-20T06:48:14.308Z,485.45
2022-12-20T06:49:14.317Z,485.77
2022-12-20T06:50:14.317Z,486.54
2022-12-20T06:51:14.336Z,486.71
2022-12-20T06:52:14.325Z,487.54
2022-12-20T06:53:14.347Z,488.22
2022-12-20T06:54:14.347Z,487.43
2022-12-20T06:55:14.327Z,488.49
2022-12-20T06:56:14.339Z,488.33
2022-12-20T06:57:14.326Z,489.24
2022-12-20T06:58:14.326Z,489
2022-12-20T06:59:14.333Z,489.41
2022-12-20T07:00:14.332Z,489.46
2022-12-20T07:01:14.365Z,489.47
2022-12-20T07:02:14.514Z,489.67
2022-12-20T07:03:14.435Z,490.13
2022-12-20T07:04:14.334Z,489.81
2022-12-20T07:05:14.361Z,490.43
2022-12-20T07:06:14.337Z,490.82
2022-12-20T07:07:14.347Z,490.06
2022-12-20T07:08:14.339Z,490.13
2022-12-20T07:09:14.340Z,490.32
2022-12-20T07:10:14.385Z,490.2
2022-12-20T07:11:14.354Z,489.97
2022-12-20T07:12:14.351Z,489.62
2022-12-20T07:13:14.345Z,489.68
2022-12-20T07:14:14.348Z,488.61
2022-12-20T07:15:14.375Z,489.27
2022-12-20T07:16:14.447Z,488.49
2022-12-20T07:17:14.359Z,487.92
2022-12-20T07:18:14.378Z,487.72
2022-12-20T07:19:17.375Z,487.65
2022-12-20T07:20:14.868Z,487.85
2022-12-20T07:21:14.377Z,487.31
2022-12-20T07:22:14.364Z,487.41
2022-12-20T07:23:14.374Z,487.44
2022-12-20T07:24:14.376Z,487.31
2022-12-20T07:25:14.365Z,487.06
2022-12-20T07:26:14.391Z,486.71
2022-12-20T07:27:14.391Z,486.69
2022-12-20T07:28:14.378Z,486.46
2022-12-20T07:29:15.783Z,486.31
2022-12-20T07:30:14.374Z,486.3
2022-12-20T07:31:14.381Z,486.04
2022-12-20T07:32:14.482Z,485.55
2022-12-20T07:33:14.377Z,486.18
2022-12-20T07:34:14.392Z,487.1
2022-12-20T07:35:14.391Z,486.79
2022-12-20T07:36:14.388Z,486.77
2022-12-20T07:37:14.395Z,488.19
2022-12-20T07:38:14.395Z,487.59
2022-12-20T07:39:14.393Z,487.86
2022-12-20T07:40:14.392Z,488.34
2022-12-20T07:41:14.392Z,489.19
2022-12-20T07:42:14.567Z,489.23
2022-12-20T07:43:14.396Z,489.92
2022-12-20T07:44:14.404Z,490.24
2022-12-20T07:45:14.429Z,490.28
2022-12-20T07:46:14.446Z,490.9
2022-12-20T07:47:14.405Z,490.69
2022-12-20T07:48:18.082Z,491.12
2022-12-20T07:49:14.404Z,491.35
2022-12-20T07:50:14.413Z,491.55
2022-12-20T07:51:14.411Z,492.01
2022-12-20T07:52:14.423Z,492.95
2022-12-20T07:53:14.434Z,492.67
2022-12-20T07:54:14.433Z,492.46
2022-12-20T07:55:14.420Z,493.2
2022-12-20T07:56:14.429Z,494.41
2022-12-20T07:57:14.428Z,494.32
2022-12-20T07:58:14.551Z,494.87
2022-12-20T07:59:14.428Z,495.22
2022-12-20T08:00:14.442Z,495.61
2022-12-20T08:01:14.477Z,496.04
2022-12-20T08:02:14.641Z,496.52
2022-12-20T08:03:14.548Z,497.31
2022-12-20T08:04:14.438Z,498
2022-12-20T08:05:14.444Z,498.68
2022-12-20T08:06:14.434Z,499.86
2022-12-20T08:07:14.441Z,500.09
2022-12-20T08:08:14.434Z,501.36
2022-12-20T08:09:14.450Z,502.69
2022-12-20T08:10:14.461Z,503.65
2022-12-20T08:11:14.444Z,504.22
2022-12-20T08:12:14.471Z,506.04
2022-12-20T08:13:14.450Z,505.8
2022-12-20T08:14:14.469Z,508.23
2022-12-20T08:15:14.452Z,508.87
2022-12-20T08:16:14.486Z,509.75
2022-12-20T08:17:14.492Z,510.63
2022-12-20T08:18:14.449Z,511.16
2022-12-20T08:19:14.460Z,512.2
2022-12-20T08:20:14.461Z,512.65
2022-12-20T08:21:14.461Z,514.55
2022-12-20T08:22:14.457Z,515.2
2022-12-20T08:23:14.457Z,515.99
2022-12-20T08:24:14.461Z,516.47
2022-12-20T08:25:14.462Z,518
2022-12-20T08:26:14.491Z,519.14
2022-12-20T08:27:14.473Z,521.22
2022-12-20T08:28:14.471Z,522.62
2022-12-20T08:29:14.493Z,523.84
2022-12-20T08:30:17.547Z,526.03
2022-12-20T08:31:14.554Z,528.97
2022-12-20T08:32:14.480Z,529.39
2022-12-20T08:33:14.474Z,531.92
2022-12-20T08:34:14.477Z,532.55
2022-12-20T08:35:14.486Z,534.7
2022-12-20T08:36:14.519Z,536.46
2022-12-20T08:37:15.290Z,537.41
2022-12-20T08:38:14.509Z,539.21
2022-12-20T08:39:14.483Z,540.67
2022-12-20T08:40:14.498Z,542.09
2022-12-20T08:41:15.235Z,543.6
2022-12-20T08:42:14.493Z,544.74
2022-12-20T08:43:14.542Z,546.02
2022-12-20T08:44:14.653Z,547.92
2022-12-20T08:45:14.506Z,549.65
2022-12-20T08:46:14.654Z,550.2
2022-12-20T08:47:14.521Z,552.49
2022-12-20T08:48:14.505Z,553.51
2022-12-20T08:49:14.508Z,554.79
2022-12-20T08:50:14.504Z,555.94
2022-12-20T08:51:14.567Z,557.24
2022-12-20T08:52:17.343Z,558.97
2022-12-20T08:53:14.507Z,559.67
2022-12-20T08:54:14.511Z,561.03
2022-12-20T08:55:14.514Z,562.13
2022-12-20T08:56:14.517Z,562.46
2022-12-20T08:57:14.517Z,563.8
2022-12-20T08:58:14.513Z,564.39
2022-12-20T08:59:14.535Z,565.88
2022-12-20T09:00:14.535Z,565.88
2022-12-20T09:01:14.604Z,566.96
2022-12-20T09:02:14.704Z,568.29
2022-12-20T09:03:17.563Z,569.58
2022-12-20T09:04:14.537Z,570.71
2022-12-20T09:05:14.523Z,571.29
2022-12-20T09:06:14.537Z,573.12
2022-12-20T09:07:14.533Z,574.05
2022-12-20T09:08:14.536Z,575.18
2022-12-20T09:09:14.537Z,577.07
2022-12-20T09:10:14.532Z,578.18
2022-12-20T09:11:14.552Z,580.05
2022-12-20T09:12:14.544Z,581.41
2022-12-20T09:13:14.546Z,581.95
2022-12-20T09:14:17.294Z,583.86
2022-12-20T09:15:14.547Z,585.4
2022-12-20T09:16:14.634Z,587
2022-12-20T09:17:14.542Z,588.63
2022-12-20T09:18:14.575Z,589.2
2022-12-20T09:19:14.543Z,590.13
2022-12-20T09:20:14.547Z,590.52
2022-12-20T09:21:14.551Z,590.72
2022-12-20T09:22:14.550Z,591.04
2022-12-20T09:23:14.559Z,591.31
2022-12-20T09:24:14.561Z,591.15
2022-12-20T09:25:14.561Z,590.93
2022-12-20T09:26:14.557Z,590.97
2022-12-20T09:27:14.581Z,590.81
2022-12-20T09:28:14.561Z,589.88
2022-12-20T09:29:17.043Z,589.14
2022-12-20T09:30:14.573Z,588.62
2022-12-20T09:31:14.627Z,588.69
2022-12-20T09:32:14.572Z,587.69
2022-12-20T09:33:14.580Z,586.65
2022-12-20T09:34:14.600Z,586.2
2022-12-20T09:35:19.443Z,585.62
2022-12-20T09:36:14.581Z,584.25
2022-12-20T09:37:14.584Z,583.59
2022-12-20T09:38:14.585Z,582.96
2022-12-20T09:39:14.612Z,582.55
2022-12-20T09:40:14.617Z,582.33
2022-12-20T09:41:17.881Z,582.55
2022-12-20T09:42:14.603Z,582.9
2022-12-20T09:43:14.584Z,583.49
2022-12-20T09:44:14.591Z,583.68
2022-12-20T09:45:14.591Z,584.01
2022-12-20T09:46:17.484Z,583.98
2022-12-20T09:47:14.698Z,584.77
2022-12-20T09:48:14.591Z,584.46
2022-12-20T09:49:14.591Z,585.15
2022-12-20T09:50:14.646Z,584.75
2022-12-20T09:51:14.601Z,584.14
2022-12-20T09:52:14.627Z,584.55
2022-12-20T09:53:18.261Z,584.29
2022-12-20T09:54:14.612Z,583.83
2022-12-20T09:55:14.614Z,583.62
2022-12-20T09:56:14.608Z,583.2
2022-12-20T09:57:14.641Z,583.12
2022-12-20T09:58:14.607Z,583.09
2022-12-20T09:59:14.613Z,582.87
2022-12-20T10:00:14.641Z,582.28
2022-12-20T10:01:15.526Z,583.44
2022-12-20T10:02:44.319Z,582.99
2022-12-20T10:03:17.210Z,583.72
2022-12-20T10:04:17.362Z,584.24
2022-12-20T10:05:17.199Z,585.17
2022-12-20T10:06:17.036Z,585.85
2022-12-20T10:07:17.074Z,586.82
2022-12-20T10:08:19.861Z,588.31
2022-12-20T10:09:17.011Z,589.78
2022-12-20T10:10:17.040Z,591.27
2022-12-20T10:11:17.023Z,592.05
2022-12-20T10:12:17.037Z,593.17
2022-12-20T10:13:17.032Z,594.62
2022-12-20T10:14:17.047Z,595.76
2022-12-20T10:15:17.019Z,597.65
2022-12-20T10:16:17.139Z,599.45
2022-12-20T10:17:17.079Z,600.76
2022-12-20T10:18:17.028Z,602.88
2022-12-20T10:19:20.087Z,604.77
2022-12-20T10:20:17.054Z,606.52
2022-12-20T10:21:17.033Z,608.74
2022-12-20T10:22:17.081Z,610.29
2022-12-20T10:23:17.072Z,612.61
2022-12-20T10:24:17.040Z,613.97
2022-12-20T10:25:17.051Z,615.7
2022-12-20T10:26:17.064Z,618.06
2022-12-20T10:27:17.062Z,620.15
2022-12-20T10:28:17.042Z,622.47
2022-12-20T10:29:17.062Z,623.87
2022-12-20T10:30:20.130Z,625.55
2022-12-20T10:31:17.117Z,627.19
2022-12-20T10:32:17.107Z,627.66
2022-12-20T10:33:17.051Z,629.26
2022-12-20T10:34:17.050Z,630.19
2022-12-20T10:35:17.055Z,631.37
2022-12-20T10:36:17.056Z,632.99
2022-12-20T10:37:17.080Z,634.55
2022-12-20T10:38:17.102Z,637.13
2022-12-20T10:39:17.115Z,637.95
2022-12-20T10:40:17.060Z,639.44
2022-12-20T10:41:22.118Z,641.38
2022-12-20T10:42:17.103Z,643.03
2022-12-20T10:43:17.067Z,644.59
2022-12-20T10:44:17.100Z,645.67
2022-12-20T10:45:17.073Z,647.28
2022-12-20T10:46:17.139Z,649.39
2022-12-20T10:47:17.095Z,650.81
2022-12-20T10:48:17.074Z,651.96
2022-12-20T10:49:17.080Z,653.21
2022-12-20T10:50:17.078Z,653.88
2022-12-20T10:51:17.260Z,655.11
2022-12-20T10:52:17.109Z,655.34
2022-12-20T10:53:17.092Z,656.37
2022-12-20T10:54:17.102Z,656.39
2022-12-20T10:55:17.088Z,657.91
2022-12-20T10:56:17.099Z,658.93
2022-12-20T10:57:17.106Z,659.13
2022-12-20T10:58:17.137Z,660.51
2022-12-20T10:59:17.089Z,662.3
2022-12-20T11:00:17.120Z,662.6
2022-12-20T11:01:17.264Z,663.33
2022-12-20T11:02:17.268Z,664.24
2022-12-20T11:03:17.365Z,664.72
2022-12-20T11:04:17.265Z,665.45
2022-12-20T11:05:17.101Z,665.49
2022-12-20T11:06:17.102Z,666.81
2022-12-20T11:07:17.156Z,667.24
2022-12-20T11:08:35.255Z,667.89
2022-12-20T11:09:17.107Z,668.84
2022-12-20T11:10:17.124Z,671.1
2022-12-20T11:11:17.149Z,674.42
2022-12-20T11:12:17.127Z,676.54
2022-12-20T11:13:17.111Z,678.68
2022-12-20T11:14:17.131Z,680.14
2022-12-20T11:15:17.121Z,681.53
2022-12-20T11:16:17.142Z,682.47
2022-12-20T11:17:17.146Z,684.17
2022-12-20T11:18:17.132Z,685.52
2022-12-20T11:19:17.124Z,686.47
2022-12-20T11:20:17.146Z,687.92
2022-12-20T11:21:19.424Z,689.18
2022-12-20T11:22:17.152Z,689.73
2022-12-20T11:23:17.162Z,690.16
2022-12-20T11:24:17.128Z,690.67
2022-12-20T11:25:17.130Z,691.05
2022-12-20T11:26:17.184Z,691.41
2022-12-20T11:27:17.167Z,692.48
2022-12-20T11:28:17.131Z,691.92
2022-12-20T11:29:17.178Z,692.75
2022-12-20T11:30:17.145Z,693.79
2022-12-20T11:31:17.249Z,694.22
2022-12-20T11:32:17.188Z,694.7
2022-12-20T11:33:17.152Z,695.28
2022-12-20T11:34:17.137Z,695.04
2022-12-20T11:35:17.141Z,695.43
2022-12-20T11:36:17.162Z,694.72
2022-12-20T11:37:17.174Z,694.87
2022-12-20T11:38:17.145Z,694.14
2022-12-20T11:39:17.203Z,694.23
2022-12-20T11:40:17.148Z,693.85
2022-12-20T11:41:17.154Z,693.93
2022-12-20T11:42:17.235Z,693.92
2022-12-20T11:43:17.168Z,693.12
2022-12-20T11:44:26.073Z,692.96
2022-12-20T11:45:17.184Z,692.72
2022-12-20T11:46:17.249Z,691.7
2022-12-20T11:47:17.262Z,691.66
2022-12-20T11:48:17.182Z,691.62
2022-12-20T11:49:17.178Z,690.38
2022-12-20T11:50:17.172Z,689.86
2022-12-20T11:51:20.168Z,689.63
2022-12-20T11:52:17.205Z,689.06
2022-12-20T11:53:17.168Z,688.69
2022-12-20T11:54:17.187Z,687.26
2022-12-20T11:55:17.271Z,686.42
2022-12-20T11:56:17.181Z,685.92
2022-12-20T11:57:17.204Z,684.55
2022-12-20T11:58:18.883Z,683.88
2022-12-20T11:59:17.177Z,683.3
2022-12-20T12:00:17.186Z,683.35
2022-12-20T12:01:18.213Z,683.51
2022-12-20T12:02:17.265Z,683.1
2022-12-20T12:03:17.262Z,682.86
2022-12-20T12:04:17.239Z,682.32
2022-12-20T12:05:17.278Z,682.43
2022-12-20T12:06:17.194Z,681.65
2022-12-20T12:07:17.274Z,682.01
2022-12-20T12:08:18.393Z,681.13
2022-12-20T12:09:17.190Z,680.52
2022-12-20T12:10:17.264Z,680.56
2022-12-20T12:11:40.303Z,680.7
2022-12-20T12:12:17.224Z,681.13
2022-12-20T12:13:20.390Z,681.23
2022-12-20T12:14:17.249Z,681.27
2022-12-20T12:15:17.640Z,682.31
2022-12-20T12:16:18.306Z,682.82
2022-12-20T12:17:17.242Z,683.74
2022-12-20T12:18:17.215Z,685.27
2022-12-20T12:19:17.209Z,686.36
2022-12-20T12:20:17.254Z,687.48
2022-12-20T12:21:17.215Z,689.33
2022-12-20T12:22:17.238Z,690.5
2022-12-20T12:23:17.261Z,691.97
2022-12-20T12:24:20.332Z,694
2022-12-20T12:25:17.229Z,695.67
2022-12-20T12:26:17.230Z,697.07
2022-12-20T12:27:17.240Z,699.01
2022-12-20T12:28:17.218Z,700.93
2022-12-20T12:29:17.295Z,702.26
2022-12-20T12:30:17.346Z,704.1
2022-12-20T12:31:17.268Z,705.79